sensor_id;sensor_type;location;lat;lon;timestamp;pressure;altitude;pressure_sealevel;temperature;humidity
49341;BME280;35209;51.050;13.678;2023-04-25T00:04:36;99104.94;;;9.05;79.22
49341;BME280;35209;51.050;13.678;2023-04-25T00:09:39;99103.03;;;9.31;78.17
49341;BME280;35209;51.050;13.678;2023-04-25T00:14:41;99103.97;;;9.30;77.98
49341;BME280;35209;51.050;13.678;2023-04-25T00:19:43;99100.34;;;9.32;77.91
49341;BME280;35209;51.050;13.678;2023-04-25T00:24:47;99102.88;;;9.34;77.88
49341;BME280;35209;51.050;13.678;2023-04-25T00:29:49;99099.56;;;9.30;77.65
49341;BME280;35209;51.050;13.678;2023-04-25T00:34:50;99100.19;;;9.15;78.29
49341;BME280;35209;51.050;13.678;2023-04-25T00:39:52;99097.38;;;8.98;78.00
49341;BME280;35209;51.050;13.678;2023-04-25T00:44:56;99093.72;;;9.02;78.06
49341;BME280;35209;51.050;13.678;2023-04-25T00:49:59;99096.59;;;8.96;77.68
49341;BME280;35209;51.050;13.678;2023-04-25T00:55:01;99096.53;;;8.75;78.58
49341;BME280;35209;51.050;13.678;2023-04-25T01:00:05;99087.03;;;8.73;78.28
49341;BME280;35209;51.050;13.678;2023-04-25T01:05:08;99096.03;;;8.66;78.55
49341;BME280;35209;51.050;13.678;2023-04-25T01:10:10;99094.88;;;8.51;78.11
49341;BME280;35209;51.050;13.678;2023-04-25T01:15:12;99090.38;;;8.54;78.29
49341;BME280;35209;51.050;13.678;2023-04-25T01:20:14;99088.41;;;8.36;78.48
49341;BME280;35209;51.050;13.678;2023-04-25T01:25:16;99084.50;;;8.24;78.53
49341;BME280;35209;51.050;13.678;2023-04-25T01:30:18;99085.88;;;8.11;79.17
49341;BME280;35209;51.050;13.678;2023-04-25T01:35:20;99083.00;;;8.17;77.89
49341;BME280;35209;51.050;13.678;2023-04-25T01:40:24;99087.66;;;8.09;77.88
49341;BME280;35209;51.050;13.678;2023-04-25T01:45:25;99082.31;;;7.89;78.38
49341;BME280;35209;51.050;13.678;2023-04-25T01:50:28;99082.88;;;7.97;77.83
49341;BME280;35209;51.050;13.678;2023-04-25T01:55:30;99085.97;;;7.84;77.65
49341;BME280;35209;51.050;13.678;2023-04-25T02:00:38;99093.75;;;7.86;77.45
49341;BME280;35209;51.050;13.678;2023-04-25T02:05:40;99089.06;;;7.71;78.58
49341;BME280;35209;51.050;13.678;2023-04-25T02:10:45;99094.06;;;7.77;77.79
49341;BME280;35209;51.050;13.678;2023-04-25T02:15:50;99089.22;;;7.66;78.42
49341;BME280;35209;51.050;13.678;2023-04-25T02:20:53;99095.06;;;7.48;79.73
49341;BME280;35209;51.050;13.678;2023-04-25T02:25:56;99090.88;;;7.44;79.34
49341;BME280;35209;51.050;13.678;2023-04-25T02:30:58;99083.56;;;7.53;79.03
49341;BME280;35209;51.050;13.678;2023-04-25T02:36:00;99085.19;;;7.56;78.23
49341;BME280;35209;51.050;13.678;2023-04-25T02:41:02;99075.91;;;7.47;79.18
49341;BME280;35209;51.050;13.678;2023-04-25T02:46:03;99081.38;;;7.41;79.49
49341;BME280;35209;51.050;13.678;2023-04-25T02:51:05;99074.47;;;7.39;79.59
49341;BME280;35209;51.050;13.678;2023-04-25T02:56:07;99074.63;;;7.34;79.74
49341;BME280;35209;51.050;13.678;2023-04-25T03:01:09;99082.69;;;7.28;80.40
49341;BME280;35209;51.050;13.678;2023-04-25T03:06:11;99078.84;;;7.13;81.37
49341;BME280;35209;51.050;13.678;2023-04-25T03:11:12;99078.88;;;7.12;81.67
49341;BME280;35209;51.050;13.678;2023-04-25T03:16:16;99074.94;;;6.98;82.10
49341;BME280;35209;51.050;13.678;2023-04-25T03:21:18;99084.41;;;7.02;82.30
49341;BME280;35209;51.050;13.678;2023-04-25T03:26:19;99073.63;;;6.85;83.13
49341;BME280;35209;51.050;13.678;2023-04-25T03:31:22;99076.22;;;6.87;82.95
49341;BME280;35209;51.050;13.678;2023-04-25T03:36:24;99079.69;;;6.86;82.86
49341;BME280;35209;51.050;13.678;2023-04-25T03:41:26;99075.53;;;6.80;83.11
49341;BME280;35209;51.050;13.678;2023-04-25T03:46:34;99073.84;;;6.79;83.03
49341;BME280;35209;51.050;13.678;2023-04-25T03:51:36;99083.47;;;6.77;83.60
49341;BME280;35209;51.050;13.678;2023-04-25T03:56:38;99077.38;;;6.76;83.06
49341;BME280;35209;51.050;13.678;2023-04-25T04:01:49;99081.72;;;6.77;83.23
49341;BME280;35209;51.050;13.678;2023-04-25T04:06:51;99075.84;;;6.71;83.82
49341;BME280;35209;51.050;13.678;2023-04-25T04:11:58;99071.94;;;6.84;82.94
49341;BME280;35209;51.050;13.678;2023-04-25T04:17:00;99077.38;;;6.76;83.69
49341;BME280;35209;51.050;13.678;2023-04-25T04:22:03;99078.16;;;6.80;83.00
49341;BME280;35209;51.050;13.678;2023-04-25T04:27:05;99078.22;;;6.78;82.62
49341;BME280;35209;51.050;13.678;2023-04-25T04:32:14;99088.72;;;7.03;81.17
49341;BME280;35209;51.050;13.678;2023-04-25T04:37:16;99084.44;;;7.01;81.14
49341;BME280;35209;51.050;13.678;2023-04-25T04:42:19;99095.66;;;7.04;80.71
49341;BME280;35209;51.050;13.678;2023-04-25T04:47:29;99089.84;;;6.95;81.76
49341;BME280;35209;51.050;13.678;2023-04-25T04:52:57;99094.69;;;7.07;81.43
49341;BME280;35209;51.050;13.678;2023-04-25T04:58:19;99108.81;;;7.28;79.58
49341;BME280;35209;51.050;13.678;2023-04-25T05:03:47;99104.91;;;7.41;79.00
49341;BME280;35209;51.050;13.678;2023-04-25T05:09:15;99112.66;;;7.44;79.35
49341;BME280;35209;51.050;13.678;2023-04-25T05:14:50;99105.81;;;7.65;77.39
49341;BME280;35209;51.050;13.678;2023-04-25T05:20:04;99110.44;;;7.82;75.67
49341;BME280;35209;51.050;13.678;2023-04-25T05:25:18;99109.19;;;7.94;74.81
49341;BME280;35209;51.050;13.678;2023-04-25T05:30:34;99103.41;;;7.84;74.02
49341;BME280;35209;51.050;13.678;2023-04-25T05:35:52;99104.91;;;7.91;74.58
49341;BME280;35209;51.050;13.678;2023-04-25T05:40:53;99105.88;;;8.12;73.41
49341;BME280;35209;51.050;13.678;2023-04-25T05:46:27;99113.06;;;8.30;71.26
49341;BME280;35209;51.050;13.678;2023-04-25T05:51:55;99118.72;;;8.43;68.74
49341;BME280;35209;51.050;13.678;2023-04-25T05:57:25;99125.84;;;8.40;68.57
49341;BME280;35209;51.050;13.678;2023-04-25T06:02:29;99127.88;;;8.78;68.07
49341;BME280;35209;51.050;13.678;2023-04-25T06:07:32;99126.59;;;9.10;65.16
49341;BME280;35209;51.050;13.678;2023-04-25T06:12:33;99123.94;;;9.32;62.84
49341;BME280;35209;51.050;13.678;2023-04-25T06:17:37;99122.97;;;9.55;61.05
49341;BME280;35209;51.050;13.678;2023-04-25T06:22:40;99126.53;;;9.54;62.15
49341;BME280;35209;51.050;13.678;2023-04-25T06:27:42;99118.72;;;9.94;61.07
49341;BME280;35209;51.050;13.678;2023-04-25T06:32:44;99122.72;;;10.02;59.38
49341;BME280;35209;51.050;13.678;2023-04-25T06:37:46;99123.44;;;10.06;58.65
49341;BME280;35209;51.050;13.678;2023-04-25T06:42:47;99115.00;;;9.79;58.82
49341;BME280;35209;51.050;13.678;2023-04-25T06:48:08;99123.56;;;10.03;59.22
49341;BME280;35209;51.050;13.678;2023-04-25T06:53:10;99123.50;;;10.25;57.77
49341;BME280;35209;51.050;13.678;2023-04-25T06:58:14;99121.53;;;9.89;59.73
49341;BME280;35209;51.050;13.678;2023-04-25T07:03:48;99119.59;;;10.52;58.34
49341;BME280;35209;51.050;13.678;2023-04-25T07:08:52;99123.66;;;10.59;57.72
49341;BME280;35209;51.050;13.678;2023-04-25T07:13:54;99128.00;;;10.60;56.33
49341;BME280;35209;51.050;13.678;2023-04-25T07:18:56;99122.81;;;10.78;56.06
49341;BME280;35209;51.050;13.678;2023-04-25T07:23:58;99118.75;;;10.90;55.57
49341;BME280;35209;51.050;13.678;2023-04-25T07:29:05;99122.84;;;11.31;56.21
49341;BME280;35209;51.050;13.678;2023-04-25T07:34:07;99129.91;;;11.31;55.09
49341;BME280;35209;51.050;13.678;2023-04-25T07:39:12;99134.94;;;10.61;53.44
49341;BME280;35209;51.050;13.678;2023-04-25T07:44:15;99122.38;;;10.68;55.79
49341;BME280;35209;51.050;13.678;2023-04-25T07:49:17;99142.81;;;10.99;56.19
49341;BME280;35209;51.050;13.678;2023-04-25T07:54:19;99136.56;;;11.38;52.98
49341;BME280;35209;51.050;13.678;2023-04-25T07:59:27;99139.28;;;11.00;51.95
49341;BME280;35209;51.050;13.678;2023-04-25T08:04:33;99138.78;;;10.92;51.91
49341;BME280;35209;51.050;13.678;2023-04-25T08:09:41;99150.38;;;10.69;54.69
49341;BME280;35209;51.050;13.678;2023-04-25T08:14:50;99163.72;;;10.83;55.81
49341;BME280;35209;51.050;13.678;2023-04-25T08:19:52;99156.41;;;10.71;56.11
49341;BME280;35209;51.050;13.678;2023-04-25T08:25:01;99160.47;;;10.59;56.60
49341;BME280;35209;51.050;13.678;2023-04-25T08:30:04;99163.22;;;10.75;55.84
49341;BME280;35209;51.050;13.678;2023-04-25T08:35:07;99160.88;;;10.69;57.35
49341;BME280;35209;51.050;13.678;2023-04-25T08:40:12;99170.16;;;10.39;58.02
49341;BME280;35209;51.050;13.678;2023-04-25T08:45:31;99171.53;;;10.47;57.89
49341;BME280;35209;51.050;13.678;2023-04-25T08:50:34;99182.69;;;10.71;57.12
49341;BME280;35209;51.050;13.678;2023-04-25T08:55:38;99194.97;;;10.11;60.28
49341;BME280;35209;51.050;13.678;2023-04-25T09:00:46;99179.63;;;10.61;58.64
49341;BME280;35209;51.050;13.678;2023-04-25T09:05:49;99191.66;;;10.86;57.50
49341;BME280;35209;51.050;13.678;2023-04-25T09:10:51;99211.88;;;10.46;57.68
49341;BME280;35209;51.050;13.678;2023-04-25T09:15:55;99211.13;;;10.43;59.13
49341;BME280;35209;51.050;13.678;2023-04-25T09:21:15;99220.69;;;10.25;61.70
49341;BME280;35209;51.050;13.678;2023-04-25T09:26:20;99227.94;;;10.18;57.79
49341;BME280;35209;51.050;13.678;2023-04-25T09:31:24;99232.06;;;10.03;59.37
49341;BME280;35209;51.050;13.678;2023-04-25T09:36:30;99243.53;;;9.80;61.79
49341;BME280;35209;51.050;13.678;2023-04-25T09:41:53;99245.81;;;9.46;62.50
49341;BME280;35209;51.050;13.678;2023-04-25T09:46:56;99244.41;;;9.59;62.12
49341;BME280;35209;51.050;13.678;2023-04-25T09:52:00;99256.59;;;9.60;61.85
49341;BME280;35209;51.050;13.678;2023-04-25T09:57:18;99250.84;;;9.72;63.67
49341;BME280;35209;51.050;13.678;2023-04-25T10:02:25;99254.34;;;10.15;62.33
49341;BME280;35209;51.050;13.678;2023-04-25T10:07:35;99251.06;;;10.30;60.42
49341;BME280;35209;51.050;13.678;2023-04-25T10:12:44;99263.34;;;10.50;59.58
49341;BME280;35209;51.050;13.678;2023-04-25T10:17:46;99256.78;;;10.79;59.21
49341;BME280;35209;51.050;13.678;2023-04-25T10:22:47;99264.84;;;10.35;61.13
49341;BME280;35209;51.050;13.678;2023-04-25T10:27:51;99266.03;;;10.69;60.58
49341;BME280;35209;51.050;13.678;2023-04-25T10:32:54;99273.94;;;10.88;58.67
49341;BME280;35209;51.050;13.678;2023-04-25T10:38:05;99266.03;;;10.88;59.90
49341;BME280;35209;51.050;13.678;2023-04-25T10:48:45;99279.78;;;10.35;62.88
49341;BME280;35209;51.050;13.678;2023-04-25T10:54:08;99285.22;;;10.30;63.08
49341;BME280;35209;51.050;13.678;2023-04-25T11:04:30;99299.09;;;9.70;67.16
49341;BME280;35209;51.050;13.678;2023-04-25T11:09:33;99298.66;;;9.58;66.76
49341;BME280;35209;51.050;13.678;2023-04-25T11:14:35;99303.81;;;9.82;66.20
49341;BME280;35209;51.050;13.678;2023-04-25T11:19:37;99313.84;;;9.72;68.22
49341;BME280;35209;51.050;13.678;2023-04-25T11:24:39;99316.34;;;9.97;69.75
49341;BME280;35209;51.050;13.678;2023-04-25T11:29:41;99328.38;;;9.81;67.40
49341;BME280;35209;51.050;13.678;2023-04-25T11:34:44;99342.63;;;10.18;68.08
49341;BME280;35209;51.050;13.678;2023-04-25T11:39:49;99332.78;;;10.24;65.53
49341;BME280;35209;51.050;13.678;2023-04-25T11:44:51;99337.09;;;10.03;66.42
49341;BME280;35209;51.050;13.678;2023-04-25T11:49:53;99339.03;;;10.20;65.90
49341;BME280;35209;51.050;13.678;2023-04-25T11:54:56;99342.59;;;10.41;64.10
49341;BME280;35209;51.050;13.678;2023-04-25T12:05:21;99338.97;;;10.22;63.21
49341;BME280;35209;51.050;13.678;2023-04-25T12:10:27;99352.28;;;10.17;61.09
49341;BME280;35209;51.050;13.678;2023-04-25T12:15:29;99344.97;;;10.03;61.20
49341;BME280;35209;51.050;13.678;2023-04-25T12:20:31;99352.84;;;9.81;61.34
49341;BME280;35209;51.050;13.678;2023-04-25T12:25:41;99355.59;;;10.00;61.97
49341;BME280;35209;51.050;13.678;2023-04-25T12:30:59;99354.88;;;10.41;58.68
49341;BME280;35209;51.050;13.678;2023-04-25T12:36:03;99350.75;;;10.76;56.09
49341;BME280;35209;51.050;13.678;2023-04-25T12:41:09;99350.97;;;10.90;54.58
49341;BME280;35209;51.050;13.678;2023-04-25T12:46:11;99359.78;;;10.48;55.45
49341;BME280;35209;51.050;13.678;2023-04-25T12:51:13;99358.16;;;10.46;54.39
49341;BME280;35209;51.050;13.678;2023-04-25T12:56:15;99360.03;;;10.42;55.87
49341;BME280;35209;51.050;13.678;2023-04-25T13:01:16;99358.34;;;10.61;55.68
49341;BME280;35209;51.050;13.678;2023-04-25T13:06:19;99358.59;;;10.35;56.45
49341;BME280;35209;51.050;13.678;2023-04-25T13:11:21;99370.88;;;10.34;57.09
49341;BME280;35209;51.050;13.678;2023-04-25T13:16:23;99374.66;;;9.83;58.99
49341;BME280;35209;51.050;13.678;2023-04-25T13:21:25;99380.16;;;9.54;60.94
49341;BME280;35209;51.050;13.678;2023-04-25T13:26:27;99392.78;;;9.44;62.26
49341;BME280;35209;51.050;13.678;2023-04-25T13:31:29;99395.88;;;9.07;62.73
49341;BME280;35209;51.050;13.678;2023-04-25T13:36:31;99405.56;;;8.80;59.55
49341;BME280;35209;51.050;13.678;2023-04-25T13:41:33;99403.22;;;8.72;57.80
49341;BME280;35209;51.050;13.678;2023-04-25T13:46:35;99404.34;;;8.90;57.61
49341;BME280;35209;51.050;13.678;2023-04-25T13:51:41;99411.88;;;8.74;58.94
49341;BME280;35209;51.050;13.678;2023-04-25T13:56:44;99416.66;;;8.88;58.53
49341;BME280;35209;51.050;13.678;2023-04-25T14:01:45;99414.88;;;9.14;56.99
49341;BME280;35209;51.050;13.678;2023-04-25T14:06:47;99414.53;;;8.99;57.10
49341;BME280;35209;51.050;13.678;2023-04-25T14:11:49;99421.31;;;9.05;56.64
49341;BME280;35209;51.050;13.678;2023-04-25T14:16:51;99420.13;;;9.37;56.01
49341;BME280;35209;51.050;13.678;2023-04-25T14:21:55;99422.41;;;9.46;55.51
49341;BME280;35209;51.050;13.678;2023-04-25T14:26:57;99423.91;;;9.53;57.90
49341;BME280;35209;51.050;13.678;2023-04-25T14:31:59;99414.53;;;10.15;54.91
49341;BME280;35209;51.050;13.678;2023-04-25T14:37:01;99422.19;;;10.43;55.98
49341;BME280;35209;51.050;13.678;2023-04-25T14:42:03;99416.16;;;10.41;54.10
49341;BME280;35209;51.050;13.678;2023-04-25T14:47:05;99427.31;;;10.46;54.06
49341;BME280;35209;51.050;13.678;2023-04-25T14:52:07;99436.06;;;10.25;53.73
49341;BME280;35209;51.050;13.678;2023-04-25T14:57:08;99432.00;;;10.16;54.95
49341;BME280;35209;51.050;13.678;2023-04-25T15:02:10;99440.63;;;10.20;54.75
49341;BME280;35209;51.050;13.678;2023-04-25T15:07:12;99441.56;;;10.17;52.32
49341;BME280;35209;51.050;13.678;2023-04-25T15:12:16;99451.91;;;10.22;51.95
49341;BME280;35209;51.050;13.678;2023-04-25T15:17:19;99449.97;;;9.81;50.25
49341;BME280;35209;51.050;13.678;2023-04-25T15:22:21;99459.50;;;9.60;51.58
49341;BME280;35209;51.050;13.678;2023-04-25T15:27:22;99465.56;;;9.63;50.37
49341;BME280;35209;51.050;13.678;2023-04-25T15:32:24;99460.63;;;9.30;51.37
49341;BME280;35209;51.050;13.678;2023-04-25T15:37:27;99474.09;;;9.44;50.88
49341;BME280;35209;51.050;13.678;2023-04-25T15:42:29;99468.03;;;9.42;49.82
49341;BME280;35209;51.050;13.678;2023-04-25T15:47:31;99468.66;;;9.00;51.80
49341;BME280;35209;51.050;13.678;2023-04-25T15:52:35;99475.91;;;8.92;50.69
49341;BME280;35209;51.050;13.678;2023-04-25T15:57:37;99467.81;;;8.98;50.88
49341;BME280;35209;51.050;13.678;2023-04-25T16:02:40;99476.09;;;9.13;50.74
49341;BME280;35209;51.050;13.678;2023-04-25T16:07:43;99471.19;;;9.03;51.79
49341;BME280;35209;51.050;13.678;2023-04-25T16:12:45;99465.88;;;9.30;50.58
49341;BME280;35209;51.050;13.678;2023-04-25T16:17:50;99478.09;;;9.54;49.86
49341;BME280;35209;51.050;13.678;2023-04-25T16:22:52;99473.03;;;9.25;50.66
49341;BME280;35209;51.050;13.678;2023-04-25T16:27:54;99470.47;;;9.48;49.26
49341;BME280;35209;51.050;13.678;2023-04-25T16:32:55;99481.13;;;9.44;49.30
49341;BME280;35209;51.050;13.678;2023-04-25T16:37:58;99485.97;;;9.54;47.75
49341;BME280;35209;51.050;13.678;2023-04-25T16:43:00;99492.06;;;9.55;45.21
49341;BME280;35209;51.050;13.678;2023-04-25T16:48:02;99498.31;;;9.27;44.10
49341;BME280;35209;51.050;13.678;2023-04-25T16:53:04;99508.81;;;9.01;44.11
49341;BME280;35209;51.050;13.678;2023-04-25T16:58:06;99501.97;;;8.97;44.76
49341;BME280;35209;51.050;13.678;2023-04-25T17:03:10;99508.72;;;9.04;45.67
49341;BME280;35209;51.050;13.678;2023-04-25T17:08:12;99510.09;;;8.89;46.86
49341;BME280;35209;51.050;13.678;2023-04-25T17:13:14;99521.78;;;9.05;45.81
49341;BME280;35209;51.050;13.678;2023-04-25T17:18:16;99520.41;;;8.94;46.18
49341;BME280;35209;51.050;13.678;2023-04-25T17:23:18;99523.75;;;8.99;47.42
49341;BME280;35209;51.050;13.678;2023-04-25T17:28:22;99532.72;;;8.92;47.37
49341;BME280;35209;51.050;13.678;2023-04-25T17:33:24;99534.66;;;9.12;46.79
49341;BME280;35209;51.050;13.678;2023-04-25T17:38:27;99541.66;;;8.86;47.92
49341;BME280;35209;51.050;13.678;2023-04-25T17:43:29;99545.22;;;8.83;48.63
49341;BME280;35209;51.050;13.678;2023-04-25T17:48:31;99554.25;;;8.47;50.80
49341;BME280;35209;51.050;13.678;2023-04-25T17:53:34;99558.44;;;8.52;51.26
49341;BME280;35209;51.050;13.678;2023-04-25T17:58:36;99566.50;;;8.46;51.13
49341;BME280;35209;51.050;13.678;2023-04-25T18:03:38;99571.25;;;8.32;51.40
49341;BME280;35209;51.050;13.678;2023-04-25T18:08:41;99579.09;;;8.32;51.62
49341;BME280;35209;51.050;13.678;2023-04-25T18:13:42;99582.94;;;8.20;51.27
49341;BME280;35209;51.050;13.678;2023-04-25T18:18:46;99584.53;;;8.26;50.87
49341;BME280;35209;51.050;13.678;2023-04-25T18:23:53;99588.34;;;8.14;50.82
49341;BME280;35209;51.050;13.678;2023-04-25T18:28:55;99597.84;;;7.87;51.56
49341;BME280;35209;51.050;13.678;2023-04-25T18:33:57;99601.09;;;7.95;50.89
49341;BME280;35209;51.050;13.678;2023-04-25T18:38:59;99605.44;;;7.96;51.78
49341;BME280;35209;51.050;13.678;2023-04-25T18:44:03;99610.25;;;7.80;51.77
49341;BME280;35209;51.050;13.678;2023-04-25T18:49:05;99616.72;;;7.66;52.13
49341;BME280;35209;51.050;13.678;2023-04-25T18:54:07;99623.78;;;7.64;52.43
49341;BME280;35209;51.050;13.678;2023-04-25T18:59:11;99636.44;;;7.46;52.99
49341;BME280;35209;51.050;13.678;2023-04-25T19:04:15;99637.78;;;7.61;52.59
49341;BME280;35209;51.050;13.678;2023-04-25T19:09:17;99643.53;;;7.41;53.52
49341;BME280;35209;51.050;13.678;2023-04-25T19:14:19;99644.81;;;7.25;54.30
49341;BME280;35209;51.050;13.678;2023-04-25T19:19:21;99651.75;;;7.26;54.49
49341;BME280;35209;51.050;13.678;2023-04-25T19:24:23;99643.47;;;7.08;54.89
49341;BME280;35209;51.050;13.678;2023-04-25T19:29:25;99641.94;;;7.00;55.40
49341;BME280;35209;51.050;13.678;2023-04-25T19:34:28;99642.22;;;6.86;56.12
49341;BME280;35209;51.050;13.678;2023-04-25T19:39:30;99645.75;;;6.85;56.19
49341;BME280;35209;51.050;13.678;2023-04-25T19:44:31;99654.00;;;6.67;57.03
49341;BME280;35209;51.050;13.678;2023-04-25T19:49:33;99653.19;;;6.65;56.77
49341;BME280;35209;51.050;13.678;2023-04-25T19:54:35;99649.06;;;6.53;57.34
49341;BME280;35209;51.050;13.678;2023-04-25T19:59:37;99659.38;;;6.61;57.15
49341;BME280;35209;51.050;13.678;2023-04-25T20:04:38;99662.88;;;6.58;57.45
49341;BME280;35209;51.050;13.678;2023-04-25T20:09:40;99672.06;;;6.36;58.49
49341;BME280;35209;51.050;13.678;2023-04-25T20:14:42;99675.47;;;6.39;57.95
49341;BME280;35209;51.050;13.678;2023-04-25T20:19:45;99675.53;;;6.36;58.71
49341;BME280;35209;51.050;13.678;2023-04-25T20:24:47;99687.75;;;6.34;58.62
49341;BME280;35209;51.050;13.678;2023-04-25T20:29:48;99691.44;;;6.24;59.32
49341;BME280;35209;51.050;13.678;2023-04-25T20:34:50;99688.28;;;6.08;59.88
49341;BME280;35209;51.050;13.678;2023-04-25T20:39:52;99691.78;;;6.05;59.84
49341;BME280;35209;51.050;13.678;2023-04-25T20:44:54;99691.81;;;6.04;60.56
49341;BME280;35209;51.050;13.678;2023-04-25T20:49:56;99694.41;;;6.05;60.23
49341;BME280;35209;51.050;13.678;2023-04-25T20:54:59;99693.75;;;5.94;61.02
49341;BME280;35209;51.050;13.678;2023-04-25T21:00:01;99691.53;;;6.19;59.19
49341;BME280;35209;51.050;13.678;2023-04-25T21:05:05;99691.75;;;6.09;58.94
49341;BME280;35209;51.050;13.678;2023-04-25T21:10:08;99705.56;;;6.14;59.74
49341;BME280;35209;51.050;13.678;2023-04-25T21:15:10;99702.00;;;6.18;59.18
49341;BME280;35209;51.050;13.678;2023-04-25T21:20:17;99707.13;;;6.22;59.27
49341;BME280;35209;51.050;13.678;2023-04-25T21:25:23;99710.19;;;6.44;58.47
49341;BME280;35209;51.050;13.678;2023-04-25T21:30:29;99711.28;;;6.32;58.92
49341;BME280;35209;51.050;13.678;2023-04-25T21:35:31;99717.38;;;6.33;59.34
49341;BME280;35209;51.050;13.678;2023-04-25T21:40:33;99712.41;;;6.19;60.79
49341;BME280;35209;51.050;13.678;2023-04-25T21:45:35;99705.69;;;6.06;61.63
49341;BME280;35209;51.050;13.678;2023-04-25T21:50:57;99713.22;;;6.23;61.10
49341;BME280;35209;51.050;13.678;2023-04-25T21:55:58;99712.50;;;6.15;61.47
49341;BME280;35209;51.050;13.678;2023-04-25T22:01:00;99717.72;;;6.15;62.00
49341;BME280;35209;51.050;13.678;2023-04-25T22:06:02;99721.56;;;6.40;60.34
49341;BME280;35209;51.050;13.678;2023-04-25T22:11:04;99725.72;;;6.50;60.38
49341;BME280;35209;51.050;13.678;2023-04-25T22:16:07;99735.53;;;6.39;61.17
49341;BME280;35209;51.050;13.678;2023-04-25T22:21:12;99738.28;;;6.31;63.20
49341;BME280;35209;51.050;13.678;2023-04-25T22:26:15;99740.41;;;6.11;65.41
49341;BME280;35209;51.050;13.678;2023-04-25T22:31:16;99748.25;;;6.10;68.01
49341;BME280;35209;51.050;13.678;2023-04-25T22:36:18;99743.09;;;6.06;69.16
49341;BME280;35209;51.050;13.678;2023-04-25T22:41:20;99750.13;;;6.03;70.21
49341;BME280;35209;51.050;13.678;2023-04-25T22:46:24;99759.78;;;5.96;70.69
49341;BME280;35209;51.050;13.678;2023-04-25T22:51:25;99758.91;;;5.97;70.80
49341;BME280;35209;51.050;13.678;2023-04-25T22:56:30;99766.63;;;6.03;70.73
49341;BME280;35209;51.050;13.678;2023-04-25T23:01:33;99764.06;;;6.00;70.66
49341;BME280;35209;51.050;13.678;2023-04-25T23:06:34;99768.63;;;5.86;72.04
49341;BME280;35209;51.050;13.678;2023-04-25T23:11:37;99776.53;;;5.81;72.05
49341;BME280;35209;51.050;13.678;2023-04-25T23:16:38;99775.75;;;5.76;72.40
49341;BME280;35209;51.050;13.678;2023-04-25T23:21:41;99784.38;;;5.81;71.94
49341;BME280;35209;51.050;13.678;2023-04-25T23:26:43;99779.22;;;5.75;72.38
49341;BME280;35209;51.050;13.678;2023-04-25T23:31:44;99783.47;;;5.82;71.43
49341;BME280;35209;51.050;13.678;2023-04-25T23:36:46;99793.78;;;5.93;70.66
49341;BME280;35209;51.050;13.678;2023-04-25T23:41:48;99794.84;;;5.80;71.69
49341;BME280;35209;51.050;13.678;2023-04-25T23:46:49;99796.41;;;5.92;71.03
49341;BME280;35209;51.050;13.678;2023-04-25T23:51:51;99802.44;;;5.95;70.82
49341;BME280;35209;51.050;13.678;2023-04-25T23:56:53;99806.16;;;5.77;71.27
